createdAt,value
2022-11-02T00:00:46.279Z,80
2022-11-02T00:01:50.452Z,81
2022-11-02T00:02:54.430Z,87
2022-11-02T00:03:58.470Z,87
2022-11-02T00:05:02.658Z,82
2022-11-02T00:06:07.253Z,83
2022-11-02T00:07:11.759Z,82
2022-11-02T00:08:15.799Z,84
2022-11-02T00:09:19.907Z,81
2022-11-02T00:10:24.132Z,86
2022-11-02T00:11:28.594Z,86
2022-11-02T00:12:32.607Z,83
2022-11-02T00:13:36.710Z,71
2022-11-02T00:14:40.870Z,74
2022-11-02T00:15:45.397Z,82
2022-11-02T00:16:49.957Z,79
2022-11-02T00:17:54.241Z,84
2022-11-02T00:19:01.203Z,81
2022-11-02T00:20:05.798Z,82
2022-11-02T00:21:10.371Z,80
2022-11-02T00:22:14.838Z,82
2022-11-02T00:23:18.869Z,79
2022-11-02T00:24:22.977Z,75
2022-11-02T00:25:27.164Z,66
2022-11-02T00:26:31.218Z,67
2022-11-02T00:27:35.610Z,76
2022-11-02T00:28:39.814Z,76
2022-11-02T00:29:43.838Z,70
2022-11-02T00:30:48.075Z,79
2022-11-02T00:31:52.549Z,69
2022-11-02T00:32:56.618Z,73
2022-11-02T00:34:00.705Z,73
2022-11-02T00:35:05.281Z,77
2022-11-02T00:36:09.941Z,78
2022-11-02T00:37:14.471Z,78
2022-11-02T00:38:18.594Z,78
2022-11-02T00:39:23.151Z,81
2022-11-02T00:40:27.263Z,71
2022-11-02T00:41:31.993Z,87
2022-11-02T00:42:36.245Z,77
2022-11-02T00:43:40.407Z,82
2022-11-02T00:44:44.893Z,80
2022-11-02T00:45:49.054Z,77
2022-11-02T00:46:53.779Z,79
2022-11-02T00:47:58.275Z,75
2022-11-02T00:49:02.739Z,81
2022-11-02T00:50:07.198Z,78
2022-11-02T00:51:11.442Z,86
2022-11-02T00:52:15.957Z,83
2022-11-02T00:53:20.114Z,81
2022-11-02T00:54:26.038Z,83
2022-11-02T00:55:28.689Z,78
2022-11-02T00:56:32.757Z,72
2022-11-02T00:57:36.826Z,72
2022-11-02T00:58:40.855Z,72
2022-11-02T00:59:44.990Z,69
2022-11-02T01:00:49.475Z,69
2022-11-02T01:01:53.697Z,67
2022-11-02T01:02:57.837Z,67
2022-11-02T01:04:02.273Z,66
2022-11-02T01:05:06.449Z,65
2022-11-02T01:06:11.386Z,66
2022-11-02T01:07:16.030Z,67
2022-11-02T01:08:20.610Z,58
2022-11-02T01:09:25.161Z,71
2022-11-02T01:10:29.634Z,72
2022-11-02T01:11:33.721Z,69
2022-11-02T01:12:38.315Z,72
2022-11-02T01:13:42.830Z,63
2022-11-02T01:14:46.933Z,75
2022-11-02T01:15:51.595Z,70
2022-11-02T01:16:56.006Z,78
2022-11-02T01:18:00.224Z,83
2022-11-02T01:19:04.785Z,68
2022-11-02T01:20:09.289Z,68
2022-11-02T01:21:13.861Z,80
2022-11-02T01:22:18.022Z,77
2022-11-02T01:23:22.133Z,72
2022-11-02T01:24:26.646Z,81
2022-11-02T01:25:31.276Z,70
2022-11-02T01:26:35.942Z,80
2022-11-02T01:27:40.421Z,84
2022-11-02T01:28:44.981Z,83
2022-11-02T01:29:49.049Z,84
2022-11-02T01:30:53.177Z,89
2022-11-02T01:31:57.749Z,86
2022-11-02T01:33:01.805Z,92
2022-11-02T01:34:06.361Z,93
2022-11-02T01:35:10.442Z,93
2022-11-02T01:36:14.559Z,94
2022-11-02T01:37:18.638Z,97
2022-11-02T01:38:23.145Z,92
2022-11-02T01:39:27.377Z,98
2022-11-02T01:40:31.815Z,103
2022-11-02T01:41:36.401Z,101
2022-11-02T01:42:41.043Z,93
2022-11-02T01:43:45.570Z,101
2022-11-02T01:44:49.616Z,100
2022-11-02T01:45:53.824Z,101
2022-11-02T01:47:00.803Z,105
2022-11-02T01:48:04.986Z,101
2022-11-02T01:49:09.080Z,104
2022-11-02T01:50:13.581Z,104
2022-11-02T01:51:20.649Z,110
2022-11-02T01:52:32.817Z,108
2022-11-02T01:53:36.930Z,113
2022-11-02T01:54:41.011Z,108
2022-11-02T01:55:50.701Z,117
2022-11-02T01:56:55.226Z,114
2022-11-02T01:57:59.300Z,111
2022-11-02T01:59:03.477Z,115
2022-11-02T02:00:08.053Z,115
2022-11-02T02:01:12.664Z,112
2022-11-02T02:02:17.277Z,110
2022-11-02T02:03:21.349Z,112
2022-11-02T02:04:25.313Z,111
2022-11-02T02:05:29.463Z,110
2022-11-02T02:06:33.517Z,110
2022-11-02T02:07:37.966Z,110
2022-11-02T02:08:42.177Z,110
2022-11-02T02:09:48.622Z,110
2022-11-02T02:10:50.275Z,110
2022-11-02T02:11:57.365Z,110
2022-11-02T02:13:01.474Z,110
2022-11-02T02:14:05.473Z,110
2022-11-02T02:15:09.521Z,110
2022-11-02T02:16:13.671Z,110
2022-11-02T02:17:20.845Z,110
2022-11-02T02:18:27.978Z,110
2022-11-02T02:19:35.514Z,110
2022-11-02T02:20:45.000Z,110
2022-11-02T02:21:49.291Z,110
2022-11-02T02:23:03.899Z,110
2022-11-02T02:24:18.669Z,110
2022-11-02T02:25:28.943Z,110
2022-11-02T02:26:38.498Z,110
2022-11-02T02:27:48.321Z,110
2022-11-02T02:29:03.080Z,110
2022-11-02T02:30:07.496Z,110
2022-11-02T02:31:11.722Z,110
2022-11-02T02:32:18.801Z,110
2022-11-02T02:33:26.377Z,110
2022-11-02T02:34:30.450Z,110
2022-11-02T02:35:39.935Z,110
2022-11-02T02:36:50.138Z,110
2022-11-02T02:37:54.269Z,110
2022-11-02T02:38:58.684Z,110
2022-11-02T02:40:07.905Z,110
2022-11-02T02:41:15.221Z,110
2022-11-02T02:42:29.914Z,110
2022-11-02T02:43:42.021Z,110
2022-11-02T02:44:48.572Z,110
2022-11-02T02:46:00.747Z,110
2022-11-02T02:47:07.867Z,110
2022-11-02T02:48:12.210Z,110
2022-11-02T02:49:16.601Z,110
2022-11-02T02:50:21.133Z,110
2022-11-02T02:51:27.822Z,110
2022-11-02T02:52:32.021Z,110
2022-11-02T02:53:36.569Z,110
2022-11-02T02:54:41.122Z,110
2022-11-02T02:55:45.565Z,110
2022-11-02T02:56:49.591Z,110
2022-11-02T02:57:53.637Z,110
2022-11-02T02:58:57.781Z,110
2022-11-02T03:00:02.063Z,110
2022-11-02T03:01:06.326Z,110
2022-11-02T03:02:10.532Z,110
2022-11-02T03:03:14.506Z,110
2022-11-02T03:04:18.685Z,110
2022-11-02T03:05:22.612Z,110
2022-11-02T03:06:26.809Z,110
2022-11-02T03:07:34.456Z,110
2022-11-02T03:08:38.437Z,110
2022-11-02T03:09:42.497Z,110
2022-11-02T03:10:51.742Z,110
2022-11-02T03:12:04.057Z,110
2022-11-02T03:13:16.007Z,110
2022-11-02T03:14:30.273Z,110
2022-11-02T03:15:42.493Z,110
2022-11-02T03:16:51.642Z,110
2022-11-02T03:18:06.196Z,110
2022-11-02T03:19:20.678Z,110
2022-11-02T03:20:30.286Z,110
2022-11-02T03:21:45.026Z,110
2022-11-02T03:22:49.353Z,110
2022-11-02T03:23:53.732Z,110
2022-11-02T03:25:03.273Z,110
2022-11-02T03:26:15.545Z,110
2022-11-02T03:27:22.819Z,110
2022-11-02T03:28:32.384Z,110
2022-11-02T03:29:47.053Z,110
2022-11-02T03:30:59.282Z,110
2022-11-02T03:32:08.473Z,110
2022-11-02T03:33:23.386Z,109
2022-11-02T03:34:27.388Z,104
2022-11-02T03:35:40.128Z,97
2022-11-02T03:36:44.205Z,94
2022-11-02T03:37:49.225Z,96
2022-11-02T03:39:01.421Z,101
2022-11-02T03:40:05.552Z,96
2022-11-02T03:41:12.656Z,92
2022-11-02T03:42:16.753Z,97
2022-11-02T03:43:24.055Z,88
2022-11-02T03:44:28.526Z,88
2022-11-02T03:45:32.541Z,83
2022-11-02T03:46:36.620Z,85
2022-11-02T03:47:41.157Z,85
2022-11-02T03:48:45.252Z,83
2022-11-02T03:49:49.389Z,88
2022-11-02T03:50:53.537Z,85
2022-11-02T03:51:57.465Z,83
2022-11-02T03:53:01.730Z,90
2022-11-02T03:54:09.028Z,77
2022-11-02T03:55:13.493Z,76
2022-11-02T03:56:20.525Z,81
2022-11-02T03:57:33.240Z,82
2022-11-02T03:58:40.193Z,73
2022-11-02T03:59:44.385Z,78
2022-11-02T04:00:48.860Z,70
2022-11-02T04:01:58.677Z,68
2022-11-02T04:03:03.120Z,74
2022-11-02T04:04:10.181Z,79
2022-11-02T04:05:14.317Z,73
2022-11-02T04:06:18.863Z,64
2022-11-02T04:07:23.333Z,56
2022-11-02T04:08:27.457Z,56
2022-11-02T04:09:37.040Z,55
2022-11-02T04:10:41.126Z,52
2022-11-02T04:11:50.233Z,53
2022-11-02T04:12:59.473Z,53
2022-11-02T04:14:08.655Z,52
2022-11-02T04:15:18.373Z,52
2022-11-02T04:16:26.593Z,44
2022-11-02T04:17:27.120Z,41
2022-11-02T04:18:36.570Z,42
2022-11-02T04:19:48.591Z,40
2022-11-02T04:20:49.995Z,35
2022-11-02T04:21:54.318Z,34
2022-11-02T04:23:03.559Z,30
2022-11-02T04:24:13.373Z,38
2022-11-02T04:25:22.820Z,29
2022-11-02T04:26:27.082Z,32
2022-11-02T04:27:31.601Z,32
2022-11-02T04:28:35.660Z,38
2022-11-02T04:29:39.805Z,39
2022-11-02T04:30:44.253Z,46
2022-11-02T04:31:48.376Z,49
2022-11-02T04:32:52.957Z,48
2022-11-02T04:34:02.571Z,39
2022-11-02T04:35:06.705Z,48
2022-11-02T04:36:10.885Z,54
2022-11-02T04:37:15.362Z,53
2022-11-02T04:38:24.857Z,54
2022-11-02T04:39:34.208Z,59
2022-11-02T04:40:38.677Z,60
2022-11-02T04:41:42.781Z,65
2022-11-02T04:42:47.368Z,64
2022-11-02T04:43:51.343Z,73
2022-11-02T04:44:55.563Z,65
2022-11-02T04:45:59.753Z,69
2022-11-02T04:47:04.208Z,67
2022-11-02T04:48:08.750Z,70
2022-11-02T04:49:12.814Z,71
2022-11-02T04:50:17.600Z,79
2022-11-02T04:51:21.896Z,75
2022-11-02T04:52:25.944Z,74
2022-11-02T04:53:30.038Z,81
2022-11-02T04:54:34.118Z,84
2022-11-02T04:55:38.280Z,84
2022-11-02T04:56:42.746Z,80
2022-11-02T04:57:47.430Z,86
2022-11-02T04:58:52.089Z,80
2022-11-02T04:59:56.508Z,82
2022-11-02T05:01:00.553Z,82
2022-11-02T05:02:13.039Z,75
2022-11-02T05:03:17.364Z,77
2022-11-02T05:04:21.545Z,77
2022-11-02T05:05:26.120Z,76
2022-11-02T05:06:30.586Z,80
2022-11-02T05:07:34.797Z,72
2022-11-02T05:08:39.265Z,77
2022-11-02T05:09:43.443Z,73
2022-11-02T05:10:47.888Z,70
2022-11-02T05:11:52.049Z,74
2022-11-02T05:12:56.557Z,77
2022-11-02T05:14:00.708Z,76
2022-11-02T05:15:04.847Z,73
2022-11-02T05:16:09.321Z,74
2022-11-02T05:17:13.433Z,76
2022-11-02T05:18:19.174Z,71
2022-11-02T05:19:22.604Z,63
2022-11-02T05:20:27.309Z,64
2022-11-02T05:21:32.013Z,64
2022-11-02T05:22:36.553Z,73
2022-11-02T05:23:44.470Z,72
2022-11-02T05:24:49.082Z,74
2022-11-02T05:25:53.541Z,65
2022-11-02T05:27:00.709Z,68
2022-11-02T05:28:04.880Z,62
2022-11-02T05:29:09.437Z,57
2022-11-02T05:30:14.112Z,66
2022-11-02T05:31:18.562Z,57
2022-11-02T05:32:23.568Z,65
2022-11-02T05:33:30.463Z,63
2022-11-02T05:34:31.914Z,59
2022-11-02T05:35:36.277Z,54
2022-11-02T05:36:40.400Z,57
2022-11-02T05:37:45.092Z,51
2022-11-02T05:38:49.703Z,54
2022-11-02T05:39:54.220Z,57
2022-11-02T05:40:58.787Z,53
2022-11-02T05:42:03.396Z,58
2022-11-02T05:43:08.157Z,63
2022-11-02T05:44:12.457Z,51
2022-11-02T05:45:20.458Z,56
2022-11-02T05:46:21.093Z,45
2022-11-02T05:47:25.785Z,57
2022-11-02T05:48:30.324Z,54
2022-11-02T05:49:35.132Z,61
2022-11-02T05:50:39.349Z,55
2022-11-02T05:51:43.364Z,60
2022-11-02T05:52:47.484Z,53
2022-11-02T05:53:51.707Z,56
2022-11-02T05:54:56.172Z,57
2022-11-02T05:56:00.792Z,57
2022-11-02T05:57:05.508Z,56
2022-11-02T05:58:09.916Z,59
2022-11-02T05:59:14.037Z,58
2022-11-02T06:00:18.528Z,58
2022-11-02T06:01:22.739Z,58
2022-11-02T06:02:26.900Z,54
2022-11-02T06:03:31.556Z,51
2022-11-02T06:04:36.336Z,52
2022-11-02T06:05:40.790Z,56
2022-11-02T06:06:44.933Z,59
2022-11-02T06:07:49.056Z,61
2022-11-02T06:08:53.168Z,56
2022-11-02T06:09:57.877Z,55
2022-11-02T06:11:02.365Z,65
2022-11-02T06:12:09.973Z,55
2022-11-02T06:13:14.516Z,54
2022-11-02T06:14:18.589Z,50
2022-11-02T06:15:22.792Z,61
2022-11-02T06:16:27.308Z,56
2022-11-02T06:17:31.856Z,61
2022-11-02T06:18:41.505Z,59
2022-11-02T06:19:45.520Z,57
2022-11-02T06:20:49.760Z,63
2022-11-02T06:21:54.152Z,60
2022-11-02T06:22:58.285Z,65
2022-11-02T06:24:03.113Z,65
2022-11-02T06:25:07.616Z,62
2022-11-02T06:26:12.173Z,57
2022-11-02T06:27:16.629Z,55
2022-11-02T06:28:20.716Z,47
2022-11-02T06:29:25.177Z,55
2022-11-02T06:30:29.441Z,53
2022-11-02T06:31:34.005Z,45
2022-11-02T06:32:38.468Z,48
2022-11-02T06:33:42.889Z,50
2022-11-02T06:34:47.286Z,43
2022-11-02T06:35:52.083Z,42
2022-11-02T06:36:56.340Z,46
2022-11-02T06:38:00.576Z,55
2022-11-02T06:39:05.131Z,53
2022-11-02T06:40:09.662Z,57
2022-11-02T06:41:14.171Z,52
2022-11-02T06:42:18.173Z,59
2022-11-02T06:43:22.954Z,52
2022-11-02T06:44:26.940Z,54
2022-11-02T06:45:31.444Z,58
2022-11-02T06:46:35.648Z,56
2022-11-02T06:47:40.233Z,54
2022-11-02T06:48:44.709Z,50
2022-11-02T06:49:49.345Z,51
2022-11-02T06:50:53.992Z,52
2022-11-02T06:51:58.484Z,55
2022-11-02T06:53:03.452Z,56
2022-11-02T06:54:08.727Z,52
2022-11-02T06:55:11.536Z,54
2022-11-02T06:56:15.761Z,52
2022-11-02T06:57:20.284Z,52
2022-11-02T06:58:24.455Z,45
2022-11-02T06:59:29.122Z,47
2022-11-02T07:00:33.767Z,37
2022-11-02T07:01:38.273Z,36
2022-11-02T07:02:42.408Z,32
2022-11-02T07:03:46.764Z,42
2022-11-02T07:04:50.861Z,33
2022-11-02T07:05:55.417Z,31
2022-11-02T07:06:59.508Z,30
2022-11-02T07:08:03.744Z,34
2022-11-02T07:09:08.147Z,26
2022-11-02T07:10:12.782Z,35
2022-11-02T07:11:17.317Z,33
2022-11-02T07:12:23.112Z,38
2022-11-02T07:13:25.491Z,32
2022-11-02T07:14:29.977Z,43
2022-11-02T07:15:34.029Z,46
2022-11-02T07:16:38.007Z,32
2022-11-02T07:17:42.272Z,27
2022-11-02T07:18:46.756Z,31
2022-11-02T07:19:51.408Z,25
2022-11-02T07:20:55.916Z,29
2022-11-02T07:22:00.549Z,35
2022-11-02T07:23:05.600Z,27
2022-11-02T07:24:09.669Z,28
2022-11-02T07:25:14.180Z,25
2022-11-02T07:26:18.512Z,30
2022-11-02T07:27:22.919Z,30
2022-11-02T07:28:27.576Z,26
2022-11-02T07:29:31.755Z,38
2022-11-02T07:30:36.139Z,39
2022-11-02T07:31:40.852Z,40
2022-11-02T07:32:45.368Z,41
2022-11-02T07:33:49.896Z,45
2022-11-02T07:34:54.400Z,44
2022-11-02T07:35:58.519Z,58
2022-11-02T07:37:03.057Z,67
2022-11-02T07:38:07.184Z,63
2022-11-02T07:39:11.204Z,78
2022-11-02T07:40:15.352Z,85
2022-11-02T07:41:19.895Z,84
2022-11-02T07:42:24.057Z,89
2022-11-02T07:43:28.568Z,100
2022-11-02T07:44:32.916Z,100
2022-11-02T07:45:37.332Z,97
2022-11-02T07:46:41.827Z,108
2022-11-02T07:47:45.920Z,108
2022-11-02T07:48:50.619Z,113
2022-11-02T07:49:55.119Z,112
2022-11-02T07:50:59.730Z,100
2022-11-02T07:52:04.313Z,107
2022-11-02T07:53:08.821Z,105
2022-11-02T07:54:13.031Z,106
2022-11-02T07:55:17.583Z,103
2022-11-02T07:56:22.125Z,101
2022-11-02T07:57:26.696Z,103
2022-11-02T07:58:30.857Z,107
2022-11-02T07:59:35.300Z,102
2022-11-02T08:00:39.524Z,103
2022-11-02T08:01:44.102Z,100
2022-11-02T08:02:48.180Z,101
2022-11-02T08:03:57.820Z,102
2022-11-02T08:05:02.309Z,102
2022-11-02T08:06:07.032Z,102
2022-11-02T08:07:11.613Z,106
2022-11-02T08:08:16.156Z,95
2022-11-02T08:09:20.128Z,90
2022-11-02T08:10:24.312Z,95
2022-11-02T08:11:28.853Z,86
2022-11-02T08:12:32.940Z,88
2022-11-02T08:13:37.040Z,90
2022-11-02T08:14:41.682Z,82
2022-11-02T08:15:46.182Z,81
2022-11-02T08:16:50.320Z,84
2022-11-02T08:17:54.444Z,82
2022-11-02T08:19:09.232Z,73
2022-11-02T08:20:13.668Z,72
2022-11-02T08:21:17.868Z,74
2022-11-02T08:22:22.525Z,70
2022-11-02T08:23:26.979Z,72
2022-11-02T08:24:31.044Z,69
2022-11-02T08:25:35.657Z,55
2022-11-02T08:26:41.079Z,59
2022-11-02T08:27:44.336Z,52
2022-11-02T08:28:48.949Z,47
2022-11-02T08:29:53.564Z,51
2022-11-02T08:30:58.168Z,44
2022-11-02T08:32:02.733Z,39
2022-11-02T08:33:07.327Z,36
2022-11-02T08:34:11.824Z,37
2022-11-02T08:35:15.954Z,33
2022-11-02T08:36:20.092Z,31
2022-11-02T08:37:24.604Z,27
2022-11-02T08:38:28.750Z,26
2022-11-02T08:39:33.497Z,25
2022-11-02T08:40:37.762Z,25
2022-11-02T08:41:41.896Z,33
2022-11-02T08:42:46.016Z,25
2022-11-02T08:43:50.932Z,28
2022-11-02T08:44:55.323Z,25
2022-11-02T08:46:16.723Z,26
2022-11-02T08:47:05.514Z,34
2022-11-02T08:48:08.492Z,28
2022-11-02T08:49:13.132Z,26
2022-11-02T08:50:17.620Z,27
2022-11-02T08:51:22.452Z,33
2022-11-02T08:52:26.785Z,27
2022-11-02T08:53:30.844Z,34
2022-11-02T08:54:35.191Z,28
2022-11-02T08:55:39.625Z,26
2022-11-02T08:56:44.036Z,25
2022-11-02T08:57:48.194Z,28
2022-11-02T08:58:52.833Z,25
2022-11-02T08:59:57.357Z,25
2022-11-02T09:01:02.199Z,27
2022-11-02T09:02:06.664Z,29
2022-11-02T09:03:11.170Z,25
2022-11-02T09:04:15.736Z,25
2022-11-02T09:05:20.197Z,28
2022-11-02T09:06:24.480Z,28
2022-11-02T09:07:28.985Z,25
2022-11-02T09:08:33.446Z,25
2022-11-02T09:09:38.021Z,25
2022-11-02T09:10:42.065Z,25
2022-11-02T09:11:49.209Z,28
2022-11-02T09:12:53.757Z,26
2022-11-02T09:13:57.837Z,31
2022-11-02T09:15:01.928Z,25
2022-11-02T09:16:06.502Z,34
2022-11-02T09:17:10.756Z,25
2022-11-02T09:18:15.155Z,25
2022-11-02T09:19:19.259Z,25
2022-11-02T09:20:23.856Z,31
2022-11-02T09:21:28.404Z,26
2022-11-02T09:22:32.989Z,27
2022-11-02T09:23:37.089Z,32
2022-11-02T09:24:41.648Z,30
2022-11-02T09:25:46.193Z,25
2022-11-02T09:26:50.224Z,25
2022-11-02T09:27:55.500Z,26
2022-11-02T09:28:58.880Z,28
2022-11-02T09:30:03.304Z,31
2022-11-02T09:31:10.419Z,31
2022-11-02T09:32:12.196Z,25
2022-11-02T09:33:16.709Z,29
2022-11-02T09:34:20.907Z,33
2022-11-02T09:35:25.344Z,25
2022-11-02T09:36:29.419Z,33
2022-11-02T09:37:33.515Z,25
2022-11-02T09:38:37.629Z,30
2022-11-02T09:39:42.194Z,25
2022-11-02T09:40:46.716Z,32
2022-11-02T09:41:53.912Z,37
2022-11-02T09:42:57.997Z,25
2022-11-02T09:44:07.667Z,26
2022-11-02T09:45:17.456Z,28
2022-11-02T09:46:21.923Z,34
2022-11-02T09:48:03.328Z,25
2022-11-02T09:48:31.103Z,28
2022-11-02T09:49:37.880Z,27
2022-11-02T09:50:42.373Z,27
2022-11-02T09:51:49.747Z,27
2022-11-02T09:52:53.995Z,27
2022-11-02T09:53:58.088Z,27
2022-11-02T09:55:12.804Z,27
2022-11-02T09:56:17.369Z,27
2022-11-02T09:57:22.071Z,25
2022-11-02T09:58:29.067Z,39
2022-11-02T09:59:39.287Z,37
2022-11-02T10:00:43.932Z,26
2022-11-02T10:01:48.467Z,36
2022-11-02T10:02:53.149Z,25
2022-11-02T10:04:05.228Z,25
2022-11-02T10:05:20.070Z,26
2022-11-02T10:06:34.856Z,25
2022-11-02T10:07:39.436Z,27
2022-11-02T10:08:54.218Z,25
2022-11-02T10:10:06.273Z,25
2022-11-02T10:11:18.921Z,32
2022-11-02T10:12:33.691Z,39
2022-11-02T10:13:38.290Z,36
2022-11-02T10:14:45.439Z,28
2022-11-02T10:15:54.915Z,25
2022-11-02T10:17:02.168Z,25
2022-11-02T10:18:11.960Z,29
2022-11-02T10:19:30.193Z,30
2022-11-02T10:20:31.190Z,29
2022-11-02T10:21:40.750Z,30
2022-11-02T10:22:45.855Z,25
2022-11-02T10:23:50.488Z,25
2022-11-02T10:24:54.983Z,25
2022-11-02T10:25:59.331Z,31
2022-11-02T10:27:03.728Z,32
2022-11-02T10:28:07.933Z,25
2022-11-02T10:29:17.521Z,29
2022-11-02T10:30:27.159Z,29
2022-11-02T10:31:31.441Z,30
2022-11-02T10:32:35.922Z,25
2022-11-02T10:33:40.461Z,25
2022-11-02T10:34:47.657Z,30
2022-11-02T10:36:17.242Z,25
2022-11-02T10:37:03.898Z,25
2022-11-02T10:38:18.662Z,27
2022-11-02T10:39:28.393Z,42
2022-11-02T10:40:37.980Z,40
2022-11-02T10:41:47.668Z,36
2022-11-02T10:42:56.800Z,46
2022-11-02T10:44:09.033Z,46
2022-11-02T10:45:13.439Z,42
2022-11-02T10:46:20.671Z,42
2022-11-02T10:47:30.407Z,25
2022-11-02T10:48:35.087Z,46
2022-11-02T10:49:44.707Z,45
2022-11-02T10:50:54.280Z,37
2022-11-02T10:52:06.527Z,33
2022-11-02T10:54:22.873Z,41
2022-11-02T10:55:24.904Z,37
2022-11-02T10:56:37.591Z,30
2022-11-02T10:57:44.747Z,33
2022-11-02T10:58:49.272Z,28
2022-11-02T10:59:56.860Z,36
2022-11-02T11:01:11.397Z,32
2022-11-02T11:02:15.744Z,25
2022-11-02T11:03:20.333Z,45
2022-11-02T11:04:24.884Z,28
2022-11-02T11:05:28.984Z,34
2022-11-02T11:06:33.515Z,32
2022-11-02T11:07:37.740Z,27
2022-11-02T11:08:42.719Z,32
2022-11-02T11:09:47.707Z,56
2022-11-02T11:10:54.811Z,44
2022-11-02T11:12:09.592Z,46
2022-11-02T11:16:33.067Z,27
2022-11-02T11:19:45.251Z,46
2022-11-02T11:20:49.865Z,38
2022-11-02T11:21:54.438Z,46
2022-11-02T11:22:58.887Z,47
2022-11-02T11:24:08.694Z,38
2022-11-02T11:25:13.192Z,53
2022-11-02T11:26:20.235Z,52
2022-11-02T11:27:27.418Z,43
2022-11-02T11:28:32.107Z,46
2022-11-02T11:29:40.155Z,42
2022-11-02T11:31:05.859Z,39
2022-11-02T11:32:03.216Z,45
2022-11-02T11:33:07.547Z,42
2022-11-02T11:34:17.099Z,27
2022-11-02T11:35:24.550Z,43
2022-11-02T11:36:37.302Z,36
2022-11-02T11:37:42.341Z,25
2022-11-02T11:38:51.923Z,25
2022-11-02T11:39:56.562Z,26
2022-11-02T11:41:09.299Z,40
2022-11-02T11:42:13.747Z,41
2022-11-02T11:43:17.840Z,46
2022-11-02T11:44:25.520Z,42
2022-11-02T11:45:29.651Z,29
2022-11-02T11:46:34.211Z,42
2022-11-02T11:47:41.341Z,32
2022-11-02T11:48:45.815Z,39
2022-11-02T11:50:53.967Z,33
2022-11-02T11:51:58.559Z,37
2022-11-02T11:53:03.470Z,35
2022-11-02T11:54:17.758Z,32
2022-11-02T11:55:26.987Z,25
2022-11-02T11:56:31.227Z,36
2022-11-02T11:58:39.908Z,45
2022-11-02T11:59:44.342Z,46
2022-11-02T12:00:48.849Z,42
2022-11-02T12:02:04.112Z,33
2022-11-02T12:03:08.705Z,25
2022-11-02T12:04:12.321Z,55
2022-11-02T12:05:16.460Z,47
2022-11-02T12:06:20.889Z,25
2022-11-02T12:07:35.685Z,51
2022-11-02T12:08:47.903Z,35
2022-11-02T12:10:00.036Z,54
2022-11-02T12:11:16.357Z,48
2022-11-02T12:12:22.066Z,45
2022-11-02T12:13:36.775Z,42
2022-11-02T12:14:48.943Z,43
2022-11-02T12:16:03.644Z,37
2022-11-02T12:17:15.862Z,39
2022-11-02T12:18:28.174Z,46
2022-11-02T12:19:37.834Z,25
2022-11-02T12:20:47.432Z,32
2022-11-02T12:22:02.227Z,39
2022-11-02T12:23:11.954Z,45
2022-11-02T12:24:26.718Z,51
2022-11-02T12:25:41.420Z,43
2022-11-02T12:26:56.182Z,41
2022-11-02T12:28:06.110Z,43
2022-11-02T12:29:18.531Z,41
2022-11-02T12:30:30.442Z,50
2022-11-02T12:31:44.958Z,42
2022-11-02T12:32:54.583Z,39
2022-11-02T12:34:06.854Z,36
2022-11-02T12:35:34.531Z,42
2022-11-02T12:36:31.443Z,37
2022-11-02T12:37:46.019Z,44
2022-11-02T12:39:00.280Z,40
2022-11-02T12:40:09.552Z,37
2022-11-02T12:41:19.631Z,43
2022-11-02T12:42:26.775Z,32
2022-11-02T12:43:30.851Z,42
2022-11-02T12:44:40.916Z,41
2022-11-02T12:45:52.792Z,47
2022-11-02T12:47:05.558Z,58
2022-11-02T12:48:15.131Z,58
2022-11-02T12:49:22.183Z,52
2022-11-02T12:50:34.435Z,55
2022-11-02T12:51:49.215Z,43
2022-11-02T12:52:58.986Z,43
2022-11-02T12:54:08.482Z,43
2022-11-02T12:55:16.821Z,39
2022-11-02T12:56:17.182Z,34
2022-11-02T12:57:24.341Z,33
2022-11-02T12:58:28.499Z,35
2022-11-02T12:59:35.526Z,38
2022-11-02T13:00:40.006Z,36
2022-11-02T13:01:44.415Z,43
2022-11-02T13:02:48.699Z,37
2022-11-02T13:04:03.506Z,51
2022-11-02T13:05:15.659Z,51
2022-11-02T13:06:19.939Z,54
2022-11-02T13:07:27.534Z,64
2022-11-02T13:08:39.567Z,63
2022-11-02T13:09:51.612Z,57
2022-11-02T13:11:01.496Z,61
2022-11-02T13:12:05.660Z,57
2022-11-02T13:13:13.151Z,61
2022-11-02T13:14:17.312Z,53
2022-11-02T13:15:21.927Z,63
2022-11-02T13:16:26.454Z,61
2022-11-02T13:17:39.283Z,62
2022-11-02T13:18:46.154Z,60
2022-11-02T13:19:53.378Z,63
2022-11-02T13:21:00.538Z,57
2022-11-02T13:22:05.182Z,58
2022-11-02T13:23:09.595Z,60
2022-11-02T13:24:16.735Z,68
2022-11-02T13:25:20.718Z,60
2022-11-02T13:26:29.997Z,73
2022-11-02T13:27:36.202Z,72
2022-11-02T13:28:38.646Z,70
2022-11-02T13:29:45.725Z,80
2022-11-02T13:30:49.862Z,76
2022-11-02T13:31:54.138Z,77
2022-11-02T13:33:01.267Z,78
2022-11-02T13:34:05.533Z,78
2022-11-02T13:35:09.644Z,77
2022-11-02T13:36:14.164Z,70
2022-11-02T13:37:18.336Z,87
2022-11-02T13:38:33.146Z,77
2022-11-02T13:39:43.298Z,74
2022-11-02T13:40:47.241Z,79
2022-11-02T13:41:56.632Z,82
2022-11-02T13:43:06.581Z,84
2022-11-02T13:44:18.414Z,82
2022-11-02T13:46:45.266Z,76
2022-11-02T13:47:52.484Z,78
2022-11-02T13:48:59.820Z,72
2022-11-02T13:50:09.385Z,74
2022-11-02T13:51:14.134Z,80
2022-11-02T13:52:21.460Z,74
2022-11-02T13:53:36.187Z,78
2022-11-02T13:54:40.346Z,72
2022-11-02T13:55:47.459Z,71
2022-11-02T13:56:52.323Z,74
2022-11-02T13:57:56.683Z,66
2022-11-02T13:59:01.187Z,63
2022-11-02T14:00:08.378Z,76
2022-11-02T14:01:23.125Z,76
2022-11-02T14:02:27.768Z,68
2022-11-02T14:03:32.122Z,79
2022-11-02T14:04:46.974Z,71
2022-11-02T14:05:51.851Z,68
2022-11-02T14:06:59.322Z,77
2022-11-02T14:08:04.232Z,83
2022-11-02T14:09:08.492Z,69
2022-11-02T14:10:13.237Z,76
2022-11-02T14:11:17.630Z,81
2022-11-02T14:12:22.158Z,73
2022-11-02T14:13:26.828Z,80
2022-11-02T14:14:41.602Z,81
2022-11-02T14:15:46.146Z,86
2022-11-02T14:16:51.041Z,87
2022-11-02T14:17:55.320Z,84
2022-11-02T14:19:05.737Z,88
2022-11-02T14:20:17.094Z,83
2022-11-02T14:21:32.054Z,86
2022-11-02T14:22:41.673Z,96
2022-11-02T14:23:46.086Z,97
2022-11-02T14:24:50.223Z,100
2022-11-02T14:25:54.852Z,99
2022-11-02T14:27:01.996Z,101
2022-11-02T14:28:12.033Z,102
2022-11-02T14:29:23.922Z,104
2022-11-02T14:30:38.586Z,104
2022-11-02T14:31:43.175Z,111
2022-11-02T14:32:47.229Z,107
2022-11-02T14:33:54.427Z,108
2022-11-02T14:35:04.828Z,108
2022-11-02T14:36:19.198Z,111
2022-11-02T14:37:28.899Z,113
2022-11-02T14:38:44.063Z,114
2022-11-02T14:39:56.562Z,116
2022-11-02T14:41:06.267Z,111
2022-11-02T14:42:16.436Z,116
2022-11-02T14:43:28.795Z,117
2022-11-02T14:44:41.686Z,123
2022-11-02T14:45:56.373Z,124
2022-11-02T14:47:08.552Z,117
2022-11-02T14:48:13.135Z,119
2022-11-02T14:49:17.854Z,118
2022-11-02T14:50:22.706Z,128
2022-11-02T14:51:26.758Z,123
2022-11-02T14:52:31.055Z,127
2022-11-02T14:53:35.626Z,130
2022-11-02T14:54:40.562Z,124
2022-11-02T14:55:53.725Z,133
2022-11-02T14:56:58.055Z,126
2022-11-02T14:58:10.788Z,129
2022-11-02T14:59:17.487Z,124
2022-11-02T15:00:25.219Z,129
2022-11-02T15:01:34.707Z,117
2022-11-02T15:02:41.930Z,120
2022-11-02T15:03:43.741Z,118
2022-11-02T15:04:48.002Z,113
2022-11-02T15:05:52.542Z,116
2022-11-02T15:07:02.406Z,115
2022-11-02T15:08:06.794Z,120
2022-11-02T15:09:16.479Z,117
2022-11-02T15:10:31.334Z,119
2022-11-02T15:11:35.770Z,117
2022-11-02T15:12:43.269Z,127
2022-11-02T15:13:47.498Z,120
2022-11-02T15:14:52.107Z,117
2022-11-02T15:15:56.587Z,121
2022-11-02T15:17:02.354Z,120
2022-11-02T15:18:11.821Z,113
2022-11-02T15:19:21.446Z,110
2022-11-02T15:20:36.294Z,107
2022-11-02T15:21:40.446Z,110
2022-11-02T15:22:45.074Z,115
2022-11-02T15:23:49.572Z,107
2022-11-02T15:25:03.122Z,106
2022-11-02T15:26:10.615Z,110
2022-11-02T15:27:17.602Z,107
2022-11-02T15:28:22.004Z,107
2022-11-02T15:29:26.114Z,112
2022-11-02T15:30:38.634Z,121
2022-11-02T15:31:45.659Z,118
2022-11-02T15:32:50.291Z,130
2022-11-02T15:33:55.114Z,114
2022-11-02T15:34:59.522Z,115
2022-11-02T15:36:03.792Z,115
2022-11-02T15:37:08.431Z,111
2022-11-02T15:38:17.729Z,116
2022-11-02T15:39:17.835Z,120
2022-11-02T15:40:22.574Z,120
2022-11-02T15:41:29.970Z,120
2022-11-02T15:42:39.707Z,116
2022-11-02T15:43:44.253Z,115
2022-11-02T15:44:53.970Z,129
2022-11-02T15:46:09.551Z,119